sensor_id;sensor_type;location;lat;lon;timestamp;P1;durP1;ratioP1;P2;durP2;ratioP2
18425;SDS011;9340;48.756;9.226;2023-11-19T00:01:32;3.67;;;3.37;;
18425;SDS011;9340;48.756;9.226;2023-11-19T00:03:59;4.10;;;3.13;;
18425;SDS011;9340;48.756;9.226;2023-11-19T00:06:26;3.57;;;3.27;;
18425;SDS011;9340;48.756;9.226;2023-11-19T00:08:54;3.07;;;2.77;;
18425;SDS011;9340;48.756;9.226;2023-11-19T00:11:20;3.73;;;2.90;;
18425;SDS011;9340;48.756;9.226;2023-11-19T00:13:47;5.73;;;3.50;;
18425;SDS011;9340;48.756;9.226;2023-11-19T00:16:14;3.13;;;2.80;;
18425;SDS011;9340;48.756;9.226;2023-11-19T00:18:41;4.57;;;3.33;;
18425;SDS011;9340;48.756;9.226;2023-11-19T00:21:08;3.70;;;3.17;;
18425;SDS011;9340;48.756;9.226;2023-11-19T00:23:35;3.07;;;2.70;;
18425;SDS011;9340;48.756;9.226;2023-11-19T00:26:03;3.50;;;2.87;;
18425;SDS011;9340;48.756;9.226;2023-11-19T00:28:31;3.13;;;2.83;;
18425;SDS011;9340;48.756;9.226;2023-11-19T00:30:58;3.27;;;2.97;;
18425;SDS011;9340;48.756;9.226;2023-11-19T00:33:25;3.53;;;3.00;;
18425;SDS011;9340;48.756;9.226;2023-11-19T00:35:52;2.97;;;2.77;;
18425;SDS011;9340;48.756;9.226;2023-11-19T00:38:18;2.77;;;2.57;;
18425;SDS011;9340;48.756;9.226;2023-11-19T00:40:45;3.67;;;2.90;;
18425;SDS011;9340;48.756;9.226;2023-11-19T00:43:13;3.00;;;2.80;;
18425;SDS011;9340;48.756;9.226;2023-11-19T00:45:40;3.43;;;2.60;;
18425;SDS011;9340;48.756;9.226;2023-11-19T00:48:08;2.60;;;2.40;;
18425;SDS011;9340;48.756;9.226;2023-11-19T00:50:34;2.97;;;2.77;;
18425;SDS011;9340;48.756;9.226;2023-11-19T00:53:01;3.77;;;2.83;;
18425;SDS011;9340;48.756;9.226;2023-11-19T00:55:28;3.30;;;2.80;;
18425;SDS011;9340;48.756;9.226;2023-11-19T00:57:55;3.13;;;2.90;;
18425;SDS011;9340;48.756;9.226;2023-11-19T01:00:23;3.33;;;3.10;;
18425;SDS011;9340;48.756;9.226;2023-11-19T01:02:52;3.57;;;3.27;;
18425;SDS011;9340;48.756;9.226;2023-11-19T01:05:19;4.03;;;3.47;;
18425;SDS011;9340;48.756;9.226;2023-11-19T01:07:47;3.00;;;2.47;;
18425;SDS011;9340;48.756;9.226;2023-11-19T01:10:14;2.90;;;2.60;;
18425;SDS011;9340;48.756;9.226;2023-11-19T01:12:41;3.03;;;2.73;;
18425;SDS011;9340;48.756;9.226;2023-11-19T01:15:08;3.13;;;2.47;;
18425;SDS011;9340;48.756;9.226;2023-11-19T01:17:37;2.97;;;2.77;;
18425;SDS011;9340;48.756;9.226;2023-11-19T01:20:04;2.87;;;2.53;;
18425;SDS011;9340;48.756;9.226;2023-11-19T01:22:32;3.40;;;2.20;;
18425;SDS011;9340;48.756;9.226;2023-11-19T01:24:59;3.63;;;2.47;;
18425;SDS011;9340;48.756;9.226;2023-11-19T01:27:25;2.70;;;2.40;;
18425;SDS011;9340;48.756;9.226;2023-11-19T01:29:52;2.67;;;2.43;;
18425;SDS011;9340;48.756;9.226;2023-11-19T01:32:19;2.80;;;2.60;;
18425;SDS011;9340;48.756;9.226;2023-11-19T01:34:47;2.23;;;2.10;;
18425;SDS011;9340;48.756;9.226;2023-11-19T01:37:14;2.30;;;2.10;;
18425;SDS011;9340;48.756;9.226;2023-11-19T01:39:43;2.93;;;2.63;;
18425;SDS011;9340;48.756;9.226;2023-11-19T01:42:09;2.23;;;2.03;;
18425;SDS011;9340;48.756;9.226;2023-11-19T01:44:37;2.60;;;2.40;;
18425;SDS011;9340;48.756;9.226;2023-11-19T01:47:03;2.87;;;2.03;;
18425;SDS011;9340;48.756;9.226;2023-11-19T01:49:31;2.90;;;2.60;;
18425;SDS011;9340;48.756;9.226;2023-11-19T01:52:00;2.33;;;2.13;;
18425;SDS011;9340;48.756;9.226;2023-11-19T01:54:27;2.07;;;1.87;;
18425;SDS011;9340;48.756;9.226;2023-11-19T01:56:54;2.73;;;1.90;;
18425;SDS011;9340;48.756;9.226;2023-11-19T01:59:23;2.63;;;2.27;;
18425;SDS011;9340;48.756;9.226;2023-11-19T02:01:51;3.60;;;2.10;;
18425;SDS011;9340;48.756;9.226;2023-11-19T02:04:19;1.93;;;1.83;;
18425;SDS011;9340;48.756;9.226;2023-11-19T02:06:46;1.80;;;1.70;;
18425;SDS011;9340;48.756;9.226;2023-11-19T02:09:17;2.00;;;1.90;;
18425;SDS011;9340;48.756;9.226;2023-11-19T02:11:44;2.03;;;1.83;;
18425;SDS011;9340;48.756;9.226;2023-11-19T02:14:14;3.03;;;2.00;;
18425;SDS011;9340;48.756;9.226;2023-11-19T02:16:41;2.07;;;1.90;;
18425;SDS011;9340;48.756;9.226;2023-11-19T02:19:07;3.83;;;3.43;;
18425;SDS011;9340;48.756;9.226;2023-11-19T02:21:35;4.83;;;4.43;;
18425;SDS011;9340;48.756;9.226;2023-11-19T02:24:02;4.63;;;3.90;;
18425;SDS011;9340;48.756;9.226;2023-11-19T02:26:35;3.03;;;2.83;;
18425;SDS011;9340;48.756;9.226;2023-11-19T02:29:07;3.90;;;3.60;;
18425;SDS011;9340;48.756;9.226;2023-11-19T02:31:33;5.47;;;4.03;;
18425;SDS011;9340;48.756;9.226;2023-11-19T02:34:01;3.03;;;2.80;;
18425;SDS011;9340;48.756;9.226;2023-11-19T02:36:28;2.80;;;2.60;;
18425;SDS011;9340;48.756;9.226;2023-11-19T02:38:55;3.70;;;3.40;;
18425;SDS011;9340;48.756;9.226;2023-11-19T02:41:21;3.90;;;3.30;;
18425;SDS011;9340;48.756;9.226;2023-11-19T02:43:49;5.03;;;3.80;;
18425;SDS011;9340;48.756;9.226;2023-11-19T02:46:17;4.00;;;3.60;;
18425;SDS011;9340;48.756;9.226;2023-11-19T02:48:44;4.20;;;3.90;;
18425;SDS011;9340;48.756;9.226;2023-11-19T02:51:11;3.13;;;2.87;;
18425;SDS011;9340;48.756;9.226;2023-11-19T02:53:38;4.00;;;3.70;;
18425;SDS011;9340;48.756;9.226;2023-11-19T02:56:05;4.43;;;4.07;;
18425;SDS011;9340;48.756;9.226;2023-11-19T02:58:40;4.30;;;3.90;;
18425;SDS011;9340;48.756;9.226;2023-11-19T03:01:09;4.43;;;3.77;;
18425;SDS011;9340;48.756;9.226;2023-11-19T03:03:45;4.00;;;3.60;;
18425;SDS011;9340;48.756;9.226;2023-11-19T03:06:14;4.87;;;4.37;;
18425;SDS011;9340;48.756;9.226;2023-11-19T03:08:41;4.17;;;3.87;;
18425;SDS011;9340;48.756;9.226;2023-11-19T03:11:07;4.33;;;3.07;;
18425;SDS011;9340;48.756;9.226;2023-11-19T03:13:34;3.53;;;3.23;;
18425;SDS011;9340;48.756;9.226;2023-11-19T03:16:01;4.43;;;3.50;;
18425;SDS011;9340;48.756;9.226;2023-11-19T03:18:27;3.37;;;3.07;;
18425;SDS011;9340;48.756;9.226;2023-11-19T03:20:55;6.17;;;5.10;;
18425;SDS011;9340;48.756;9.226;2023-11-19T03:23:23;5.53;;;4.50;;
18425;SDS011;9340;48.756;9.226;2023-11-19T03:25:52;6.07;;;4.80;;
18425;SDS011;9340;48.756;9.226;2023-11-19T03:28:19;5.67;;;4.67;;
18425;SDS011;9340;48.756;9.226;2023-11-19T03:30:46;6.20;;;5.50;;
18425;SDS011;9340;48.756;9.226;2023-11-19T03:33:12;6.50;;;5.90;;
18425;SDS011;9340;48.756;9.226;2023-11-19T03:35:39;6.00;;;5.40;;
18425;SDS011;9340;48.756;9.226;2023-11-19T03:38:08;12.00;;;6.40;;
18425;SDS011;9340;48.756;9.226;2023-11-19T03:40:34;8.03;;;4.00;;
18425;SDS011;9340;48.756;9.226;2023-11-19T03:43:03;12.63;;;4.10;;
18425;SDS011;9340;48.756;9.226;2023-11-19T03:45:30;4.80;;;4.17;;
18425;SDS011;9340;48.756;9.226;2023-11-19T03:47:57;5.00;;;4.40;;
18425;SDS011;9340;48.756;9.226;2023-11-19T03:50:23;7.97;;;5.50;;
18425;SDS011;9340;48.756;9.226;2023-11-19T03:52:50;7.63;;;6.87;;
18425;SDS011;9340;48.756;9.226;2023-11-19T03:55:18;15.80;;;9.80;;
18425;SDS011;9340;48.756;9.226;2023-11-19T03:57:45;6.47;;;5.87;;
18425;SDS011;9340;48.756;9.226;2023-11-19T04:00:13;6.23;;;5.67;;
18425;SDS011;9340;48.756;9.226;2023-11-19T04:02:40;12.57;;;9.53;;
18425;SDS011;9340;48.756;9.226;2023-11-19T04:05:07;7.17;;;6.47;;
18425;SDS011;9340;48.756;9.226;2023-11-19T04:07:35;6.67;;;6.07;;
18425;SDS011;9340;48.756;9.226;2023-11-19T04:10:02;13.20;;;9.70;;
18425;SDS011;9340;48.756;9.226;2023-11-19T04:12:30;6.03;;;5.50;;
18425;SDS011;9340;48.756;9.226;2023-11-19T04:14:57;7.83;;;7.07;;
18425;SDS011;9340;48.756;9.226;2023-11-19T04:17:24;8.00;;;7.00;;
18425;SDS011;9340;48.756;9.226;2023-11-19T04:19:50;5.80;;;5.30;;
18425;SDS011;9340;48.756;9.226;2023-11-19T04:22:17;5.80;;;5.20;;
18425;SDS011;9340;48.756;9.226;2023-11-19T04:24:44;2.50;;;2.30;;
18425;SDS011;9340;48.756;9.226;2023-11-19T04:27:10;2.43;;;2.23;;
18425;SDS011;9340;48.756;9.226;2023-11-19T04:29:38;2.33;;;2.13;;
18425;SDS011;9340;48.756;9.226;2023-11-19T04:32:05;4.10;;;2.10;;
18425;SDS011;9340;48.756;9.226;2023-11-19T04:34:32;2.30;;;2.07;;
18425;SDS011;9340;48.756;9.226;2023-11-19T04:36:59;2.80;;;1.50;;
18425;SDS011;9340;48.756;9.226;2023-11-19T04:39:28;2.17;;;1.10;;
18425;SDS011;9340;48.756;9.226;2023-11-19T04:41:55;1.13;;;0.90;;
18425;SDS011;9340;48.756;9.226;2023-11-19T04:44:22;0.80;;;0.80;;
18425;SDS011;9340;48.756;9.226;2023-11-19T04:46:50;0.60;;;0.60;;
18425;SDS011;9340;48.756;9.226;2023-11-19T04:49:16;1.03;;;0.90;;
18425;SDS011;9340;48.756;9.226;2023-11-19T04:51:43;0.90;;;0.70;;
18425;SDS011;9340;48.756;9.226;2023-11-19T04:54:12;0.70;;;0.70;;
18425;SDS011;9340;48.756;9.226;2023-11-19T04:56:39;0.50;;;0.50;;
18425;SDS011;9340;48.756;9.226;2023-11-19T04:59:06;0.90;;;0.80;;
18425;SDS011;9340;48.756;9.226;2023-11-19T05:01:33;0.60;;;0.60;;
18425;SDS011;9340;48.756;9.226;2023-11-19T05:04:02;1.03;;;0.70;;
18425;SDS011;9340;48.756;9.226;2023-11-19T05:06:29;0.60;;;0.60;;
18425;SDS011;9340;48.756;9.226;2023-11-19T05:08:57;1.23;;;1.00;;
18425;SDS011;9340;48.756;9.226;2023-11-19T05:11:26;0.60;;;0.60;;
18425;SDS011;9340;48.756;9.226;2023-11-19T05:13:53;0.67;;;0.67;;
18425;SDS011;9340;48.756;9.226;2023-11-19T05:16:20;2.20;;;0.90;;
18425;SDS011;9340;48.756;9.226;2023-11-19T05:18:46;0.93;;;0.83;;
18425;SDS011;9340;48.756;9.226;2023-11-19T05:21:14;0.97;;;0.90;;
18425;SDS011;9340;48.756;9.226;2023-11-19T05:23:42;1.17;;;0.83;;
18425;SDS011;9340;48.756;9.226;2023-11-19T05:26:09;1.43;;;0.87;;
18425;SDS011;9340;48.756;9.226;2023-11-19T05:28:42;0.80;;;0.80;;
18425;SDS011;9340;48.756;9.226;2023-11-19T05:31:09;0.80;;;0.80;;
18425;SDS011;9340;48.756;9.226;2023-11-19T05:33:36;0.60;;;0.60;;
18425;SDS011;9340;48.756;9.226;2023-11-19T05:36:03;0.80;;;0.80;;
18425;SDS011;9340;48.756;9.226;2023-11-19T05:38:31;0.70;;;0.70;;
18425;SDS011;9340;48.756;9.226;2023-11-19T05:40:58;0.70;;;0.70;;
18425;SDS011;9340;48.756;9.226;2023-11-19T05:43:25;1.30;;;0.97;;
18425;SDS011;9340;48.756;9.226;2023-11-19T05:45:51;0.80;;;0.80;;
18425;SDS011;9340;48.756;9.226;2023-11-19T05:48:18;0.90;;;0.90;;
18425;SDS011;9340;48.756;9.226;2023-11-19T05:50:44;0.90;;;0.70;;
18425;SDS011;9340;48.756;9.226;2023-11-19T05:53:12;1.20;;;0.70;;
18425;SDS011;9340;48.756;9.226;2023-11-19T05:55:41;0.80;;;0.80;;
18425;SDS011;9340;48.756;9.226;2023-11-19T05:58:13;0.70;;;0.63;;
18425;SDS011;9340;48.756;9.226;2023-11-19T06:00:40;0.80;;;0.80;;
18425;SDS011;9340;48.756;9.226;2023-11-19T06:03:07;0.73;;;0.73;;
18425;SDS011;9340;48.756;9.226;2023-11-19T06:05:35;0.60;;;0.60;;
18425;SDS011;9340;48.756;9.226;2023-11-19T06:08:01;1.20;;;0.90;;
18425;SDS011;9340;48.756;9.226;2023-11-19T06:10:28;0.83;;;0.80;;
18425;SDS011;9340;48.756;9.226;2023-11-19T06:12:57;0.80;;;0.80;;
18425;SDS011;9340;48.756;9.226;2023-11-19T06:15:24;2.70;;;1.20;;
18425;SDS011;9340;48.756;9.226;2023-11-19T06:17:51;1.00;;;1.00;;
18425;SDS011;9340;48.756;9.226;2023-11-19T06:20:18;0.90;;;0.80;;
18425;SDS011;9340;48.756;9.226;2023-11-19T06:22:45;0.80;;;0.80;;
18425;SDS011;9340;48.756;9.226;2023-11-19T06:25:12;0.70;;;0.70;;
18425;SDS011;9340;48.756;9.226;2023-11-19T06:27:39;1.13;;;0.70;;
18425;SDS011;9340;48.756;9.226;2023-11-19T06:30:08;0.70;;;0.70;;
18425;SDS011;9340;48.756;9.226;2023-11-19T06:32:35;0.80;;;0.77;;
18425;SDS011;9340;48.756;9.226;2023-11-19T06:35:02;0.80;;;0.80;;
18425;SDS011;9340;48.756;9.226;2023-11-19T06:37:30;0.80;;;0.80;;
18425;SDS011;9340;48.756;9.226;2023-11-19T06:39:57;0.50;;;0.50;;
18425;SDS011;9340;48.756;9.226;2023-11-19T06:42:24;1.33;;;0.70;;
18425;SDS011;9340;48.756;9.226;2023-11-19T06:44:51;1.67;;;1.57;;
18425;SDS011;9340;48.756;9.226;2023-11-19T06:47:19;0.67;;;0.67;;
18425;SDS011;9340;48.756;9.226;2023-11-19T06:49:45;1.00;;;0.90;;
18425;SDS011;9340;48.756;9.226;2023-11-19T06:52:12;0.80;;;0.80;;
18425;SDS011;9340;48.756;9.226;2023-11-19T06:54:39;1.27;;;1.17;;
18425;SDS011;9340;48.756;9.226;2023-11-19T06:57:05;3.17;;;1.53;;
18425;SDS011;9340;48.756;9.226;2023-11-19T06:59:33;1.30;;;0.97;;
18425;SDS011;9340;48.756;9.226;2023-11-19T07:02:00;1.00;;;0.90;;
18425;SDS011;9340;48.756;9.226;2023-11-19T07:04:28;1.70;;;0.80;;
18425;SDS011;9340;48.756;9.226;2023-11-19T07:06:55;0.90;;;0.90;;
18425;SDS011;9340;48.756;9.226;2023-11-19T07:09:21;1.00;;;0.90;;
18425;SDS011;9340;48.756;9.226;2023-11-19T07:11:48;2.17;;;0.80;;
18425;SDS011;9340;48.756;9.226;2023-11-19T07:14:16;1.30;;;0.90;;
18425;SDS011;9340;48.756;9.226;2023-11-19T07:16:44;0.87;;;0.80;;
18425;SDS011;9340;48.756;9.226;2023-11-19T07:19:11;1.60;;;1.20;;
18425;SDS011;9340;48.756;9.226;2023-11-19T07:21:42;0.90;;;0.90;;
18425;SDS011;9340;48.756;9.226;2023-11-19T07:24:09;1.30;;;1.20;;
18425;SDS011;9340;48.756;9.226;2023-11-19T07:26:40;1.03;;;0.97;;
18425;SDS011;9340;48.756;9.226;2023-11-19T07:29:08;1.33;;;0.80;;
18425;SDS011;9340;48.756;9.226;2023-11-19T07:31:35;0.90;;;0.90;;
18425;SDS011;9340;48.756;9.226;2023-11-19T07:34:02;0.97;;;0.97;;
18425;SDS011;9340;48.756;9.226;2023-11-19T07:36:28;2.10;;;1.17;;
18425;SDS011;9340;48.756;9.226;2023-11-19T07:38:57;1.10;;;1.00;;
18425;SDS011;9340;48.756;9.226;2023-11-19T07:41:24;0.90;;;0.90;;
18425;SDS011;9340;48.756;9.226;2023-11-19T07:43:51;1.77;;;0.80;;
18425;SDS011;9340;48.756;9.226;2023-11-19T07:46:18;1.53;;;1.00;;
18425;SDS011;9340;48.756;9.226;2023-11-19T07:48:45;1.30;;;1.10;;
18425;SDS011;9340;48.756;9.226;2023-11-19T07:51:13;1.03;;;0.90;;
18425;SDS011;9340;48.756;9.226;2023-11-19T07:53:39;1.27;;;1.17;;
18425;SDS011;9340;48.756;9.226;2023-11-19T07:56:08;1.40;;;1.30;;
18425;SDS011;9340;48.756;9.226;2023-11-19T07:58:35;1.10;;;1.00;;
18425;SDS011;9340;48.756;9.226;2023-11-19T08:01:02;2.90;;;1.10;;
18425;SDS011;9340;48.756;9.226;2023-11-19T08:03:29;1.20;;;1.10;;
18425;SDS011;9340;48.756;9.226;2023-11-19T08:05:56;0.80;;;0.80;;
18425;SDS011;9340;48.756;9.226;2023-11-19T08:08:23;1.20;;;1.10;;
18425;SDS011;9340;48.756;9.226;2023-11-19T08:10:49;1.10;;;1.00;;
18425;SDS011;9340;48.756;9.226;2023-11-19T08:13:19;0.97;;;0.97;;
18425;SDS011;9340;48.756;9.226;2023-11-19T08:15:45;1.20;;;1.10;;
18425;SDS011;9340;48.756;9.226;2023-11-19T08:18:12;0.93;;;0.90;;
18425;SDS011;9340;48.756;9.226;2023-11-19T08:20:39;2.50;;;1.10;;
18425;SDS011;9340;48.756;9.226;2023-11-19T08:23:06;2.83;;;2.60;;
18425;SDS011;9340;48.756;9.226;2023-11-19T08:25:33;9.90;;;8.87;;
18425;SDS011;9340;48.756;9.226;2023-11-19T08:28:00;9.17;;;6.87;;
18425;SDS011;9340;48.756;9.226;2023-11-19T08:30:29;2.93;;;2.63;;
18425;SDS011;9340;48.756;9.226;2023-11-19T08:32:56;3.63;;;3.23;;
18425;SDS011;9340;48.756;9.226;2023-11-19T08:35:23;1.80;;;1.70;;
18425;SDS011;9340;48.756;9.226;2023-11-19T08:37:50;6.73;;;6.13;;
18425;SDS011;9340;48.756;9.226;2023-11-19T08:40:17;2.77;;;1.80;;
18425;SDS011;9340;48.756;9.226;2023-11-19T08:42:45;2.00;;;1.57;;
18425;SDS011;9340;48.756;9.226;2023-11-19T08:45:12;1.57;;;1.40;;
18425;SDS011;9340;48.756;9.226;2023-11-19T08:47:40;2.50;;;1.80;;
18425;SDS011;9340;48.756;9.226;2023-11-19T08:50:07;1.90;;;1.80;;
18425;SDS011;9340;48.756;9.226;2023-11-19T08:52:34;1.67;;;1.37;;
18425;SDS011;9340;48.756;9.226;2023-11-19T08:55:01;1.20;;;1.10;;
18425;SDS011;9340;48.756;9.226;2023-11-19T08:57:28;1.40;;;1.30;;
18425;SDS011;9340;48.756;9.226;2023-11-19T08:59:54;1.67;;;1.30;;
18425;SDS011;9340;48.756;9.226;2023-11-19T09:02:21;1.17;;;1.07;;
18425;SDS011;9340;48.756;9.226;2023-11-19T09:04:49;1.40;;;1.10;;
18425;SDS011;9340;48.756;9.226;2023-11-19T09:07:16;1.13;;;1.00;;
18425;SDS011;9340;48.756;9.226;2023-11-19T09:09:43;1.20;;;1.10;;
18425;SDS011;9340;48.756;9.226;2023-11-19T09:12:09;1.17;;;1.07;;
18425;SDS011;9340;48.756;9.226;2023-11-19T09:14:36;1.30;;;1.10;;
18425;SDS011;9340;48.756;9.226;2023-11-19T09:17:03;1.20;;;1.00;;
18425;SDS011;9340;48.756;9.226;2023-11-19T09:19:32;3.90;;;1.70;;
18425;SDS011;9340;48.756;9.226;2023-11-19T09:22:02;1.30;;;1.20;;
18425;SDS011;9340;48.756;9.226;2023-11-19T09:24:29;1.40;;;1.13;;
18425;SDS011;9340;48.756;9.226;2023-11-19T09:26:55;1.10;;;1.00;;
18425;SDS011;9340;48.756;9.226;2023-11-19T09:29:22;1.83;;;1.30;;
18425;SDS011;9340;48.756;9.226;2023-11-19T09:31:49;2.73;;;1.20;;
18425;SDS011;9340;48.756;9.226;2023-11-19T09:34:16;1.33;;;1.10;;
18425;SDS011;9340;48.756;9.226;2023-11-19T09:36:43;2.13;;;1.10;;
18425;SDS011;9340;48.756;9.226;2023-11-19T09:39:11;1.47;;;1.37;;
18425;SDS011;9340;48.756;9.226;2023-11-19T09:41:39;1.77;;;1.17;;
18425;SDS011;9340;48.756;9.226;2023-11-19T09:44:07;1.57;;;1.27;;
18425;SDS011;9340;48.756;9.226;2023-11-19T09:46:34;3.08;;;1.63;;
18425;SDS011;9340;48.756;9.226;2023-11-19T09:49:02;2.05;;;1.20;;
18425;SDS011;9340;48.756;9.226;2023-11-19T09:51:32;1.58;;;1.27;;
18425;SDS011;9340;48.756;9.226;2023-11-19T09:53:59;2.25;;;1.60;;
18425;SDS011;9340;48.756;9.226;2023-11-19T09:56:27;1.60;;;1.40;;
18425;SDS011;9340;48.756;9.226;2023-11-19T09:58:55;1.23;;;1.13;;
18425;SDS011;9340;48.756;9.226;2023-11-19T10:01:22;3.17;;;1.55;;
18425;SDS011;9340;48.756;9.226;2023-11-19T10:03:49;1.00;;;0.90;;
18425;SDS011;9340;48.756;9.226;2023-11-19T10:06:18;2.63;;;0.90;;
18425;SDS011;9340;48.756;9.226;2023-11-19T10:08:45;1.17;;;1.02;;
18425;SDS011;9340;48.756;9.226;2023-11-19T10:11:12;1.40;;;0.95;;
18425;SDS011;9340;48.756;9.226;2023-11-19T10:13:41;1.60;;;1.20;;
18425;SDS011;9340;48.756;9.226;2023-11-19T10:16:08;1.52;;;1.10;;
18425;SDS011;9340;48.756;9.226;2023-11-19T10:18:36;1.80;;;0.90;;
18425;SDS011;9340;48.756;9.226;2023-11-19T10:21:03;0.80;;;0.80;;
18425;SDS011;9340;48.756;9.226;2023-11-19T10:23:41;1.20;;;1.10;;
18425;SDS011;9340;48.756;9.226;2023-11-19T10:26:14;1.10;;;1.00;;
18425;SDS011;9340;48.756;9.226;2023-11-19T10:28:42;1.48;;;1.00;;
18425;SDS011;9340;48.756;9.226;2023-11-19T10:31:11;1.17;;;1.08;;
18425;SDS011;9340;48.756;9.226;2023-11-19T10:33:38;1.27;;;0.95;;
18425;SDS011;9340;48.756;9.226;2023-11-19T10:36:05;1.25;;;1.05;;
18425;SDS011;9340;48.756;9.226;2023-11-19T10:38:32;1.08;;;1.00;;
18425;SDS011;9340;48.756;9.226;2023-11-19T10:40:59;1.52;;;1.10;;
18425;SDS011;9340;48.756;9.226;2023-11-19T10:43:26;1.00;;;0.80;;
18425;SDS011;9340;48.756;9.226;2023-11-19T10:45:54;1.73;;;1.10;;
18425;SDS011;9340;48.756;9.226;2023-11-19T10:48:35;1.35;;;1.00;;
18425;SDS011;9340;48.756;9.226;2023-11-19T10:51:02;1.70;;;1.13;;
18425;SDS011;9340;48.756;9.226;2023-11-19T10:53:32;1.10;;;1.00;;
18425;SDS011;9340;48.756;9.226;2023-11-19T10:56:01;1.55;;;1.10;;
18425;SDS011;9340;48.756;9.226;2023-11-19T10:58:30;1.48;;;1.38;;
18425;SDS011;9340;48.756;9.226;2023-11-19T11:01:01;1.98;;;0.90;;
18425;SDS011;9340;48.756;9.226;2023-11-19T11:03:29;2.17;;;1.00;;
18425;SDS011;9340;48.756;9.226;2023-11-19T11:06:04;1.13;;;1.02;;
18425;SDS011;9340;48.756;9.226;2023-11-19T11:08:32;2.15;;;1.20;;
18425;SDS011;9340;48.756;9.226;2023-11-19T11:11:03;1.85;;;1.20;;
18425;SDS011;9340;48.756;9.226;2023-11-19T11:13:31;1.30;;;1.20;;
18425;SDS011;9340;48.756;9.226;2023-11-19T11:16:00;1.25;;;0.90;;
18425;SDS011;9340;48.756;9.226;2023-11-19T11:18:29;1.85;;;1.05;;
18425;SDS011;9340;48.756;9.226;2023-11-19T11:20:56;1.17;;;1.00;;
18425;SDS011;9340;48.756;9.226;2023-11-19T11:26:30;1.60;;;1.10;;
18425;SDS011;9340;48.756;9.226;2023-11-19T11:29:10;6.43;;;5.82;;
18425;SDS011;9340;48.756;9.226;2023-11-19T11:31:51;3.83;;;2.45;;
18425;SDS011;9340;48.756;9.226;2023-11-19T11:34:31;2.65;;;1.38;;
18425;SDS011;9340;48.756;9.226;2023-11-19T11:37:10;1.52;;;1.00;;
18425;SDS011;9340;48.756;9.226;2023-11-19T11:39:44;1.00;;;0.98;;
18425;SDS011;9340;48.756;9.226;2023-11-19T11:42:30;2.47;;;1.10;;
18425;SDS011;9340;48.756;9.226;2023-11-19T11:44:58;1.23;;;1.05;;
18425;SDS011;9340;48.756;9.226;2023-11-19T11:47:27;1.92;;;1.10;;
18425;SDS011;9340;48.756;9.226;2023-11-19T11:50:32;1.20;;;1.10;;
18425;SDS011;9340;48.756;9.226;2023-11-19T11:53:13;1.83;;;1.08;;
18425;SDS011;9340;48.756;9.226;2023-11-19T11:55:51;1.15;;;1.05;;
18425;SDS011;9340;48.756;9.226;2023-11-19T11:58:34;2.20;;;1.10;;
18425;SDS011;9340;48.756;9.226;2023-11-19T12:01:04;1.70;;;1.35;;
18425;SDS011;9340;48.756;9.226;2023-11-19T12:03:37;1.40;;;1.13;;
18425;SDS011;9340;48.756;9.226;2023-11-19T12:06:04;1.98;;;1.35;;
18425;SDS011;9340;48.756;9.226;2023-11-19T12:08:31;1.95;;;1.15;;
18425;SDS011;9340;48.756;9.226;2023-11-19T12:11:01;3.33;;;1.30;;
18425;SDS011;9340;48.756;9.226;2023-11-19T12:13:47;2.33;;;1.50;;
18425;SDS011;9340;48.756;9.226;2023-11-19T12:16:23;1.42;;;1.00;;
18425;SDS011;9340;48.756;9.226;2023-11-19T12:18:54;1.23;;;0.90;;
18425;SDS011;9340;48.756;9.226;2023-11-19T12:21:27;1.70;;;0.95;;
18425;SDS011;9340;48.756;9.226;2023-11-19T12:23:55;1.33;;;0.90;;
18425;SDS011;9340;48.756;9.226;2023-11-19T12:26:35;1.23;;;0.95;;
18425;SDS011;9340;48.756;9.226;2023-11-19T12:29:04;2.28;;;1.40;;
18425;SDS011;9340;48.756;9.226;2023-11-19T12:31:32;1.88;;;0.90;;
18425;SDS011;9340;48.756;9.226;2023-11-19T12:34:06;1.25;;;0.80;;
18425;SDS011;9340;48.756;9.226;2023-11-19T12:36:36;1.58;;;1.10;;
18425;SDS011;9340;48.756;9.226;2023-11-19T12:39:04;1.38;;;1.10;;
18425;SDS011;9340;48.756;9.226;2023-11-19T12:41:30;1.98;;;1.10;;
18425;SDS011;9340;48.756;9.226;2023-11-19T12:44:08;2.50;;;1.17;;
18425;SDS011;9340;48.756;9.226;2023-11-19T12:46:36;1.63;;;1.15;;
18425;SDS011;9340;48.756;9.226;2023-11-19T12:49:02;1.48;;;0.95;;
18425;SDS011;9340;48.756;9.226;2023-11-19T12:51:32;2.67;;;1.17;;
18425;SDS011;9340;48.756;9.226;2023-11-19T12:53:59;1.27;;;1.00;;
18425;SDS011;9340;48.756;9.226;2023-11-19T12:56:25;3.67;;;1.20;;
18425;SDS011;9340;48.756;9.226;2023-11-19T12:58:52;2.33;;;1.17;;
18425;SDS011;9340;48.756;9.226;2023-11-19T13:01:19;3.25;;;1.30;;
18425;SDS011;9340;48.756;9.226;2023-11-19T13:03:47;4.20;;;3.22;;
18425;SDS011;9340;48.756;9.226;2023-11-19T13:06:16;2.33;;;1.70;;
18425;SDS011;9340;48.756;9.226;2023-11-19T13:08:47;1.90;;;1.40;;
18425;SDS011;9340;48.756;9.226;2023-11-19T13:11:29;2.08;;;1.42;;
18425;SDS011;9340;48.756;9.226;2023-11-19T13:13:57;3.33;;;3.03;;
18425;SDS011;9340;48.756;9.226;2023-11-19T13:16:25;2.40;;;1.38;;
18425;SDS011;9340;48.756;9.226;2023-11-19T13:18:52;2.95;;;1.88;;
18425;SDS011;9340;48.756;9.226;2023-11-19T13:21:19;2.30;;;1.30;;
18425;SDS011;9340;48.756;9.226;2023-11-19T13:23:47;1.77;;;1.20;;
18425;SDS011;9340;48.756;9.226;2023-11-19T13:26:15;1.48;;;1.38;;
18425;SDS011;9340;48.756;9.226;2023-11-19T13:28:41;1.55;;;1.10;;
18425;SDS011;9340;48.756;9.226;2023-11-19T13:31:08;1.20;;;1.10;;
18425;SDS011;9340;48.756;9.226;2023-11-19T13:33:35;2.42;;;1.20;;
18425;SDS011;9340;48.756;9.226;2023-11-19T13:36:02;1.88;;;1.30;;
18425;SDS011;9340;48.756;9.226;2023-11-19T13:38:31;2.00;;;1.02;;
18425;SDS011;9340;48.756;9.226;2023-11-19T13:40:59;0.98;;;0.93;;
18425;SDS011;9340;48.756;9.226;2023-11-19T13:43:26;2.38;;;1.00;;
18425;SDS011;9340;48.756;9.226;2023-11-19T13:45:53;2.00;;;1.10;;
18425;SDS011;9340;48.756;9.226;2023-11-19T13:48:20;1.50;;;1.00;;
18425;SDS011;9340;48.756;9.226;2023-11-19T13:50:47;1.77;;;0.98;;
18425;SDS011;9340;48.756;9.226;2023-11-19T13:53:13;1.27;;;1.17;;
18425;SDS011;9340;48.756;9.226;2023-11-19T13:55:41;3.13;;;1.13;;
18425;SDS011;9340;48.756;9.226;2023-11-19T13:58:09;1.52;;;0.98;;
18425;SDS011;9340;48.756;9.226;2023-11-19T14:00:36;2.13;;;1.30;;
18425;SDS011;9340;48.756;9.226;2023-11-19T14:03:03;2.13;;;0.97;;
18425;SDS011;9340;48.756;9.226;2023-11-19T14:05:29;2.03;;;1.20;;
18425;SDS011;9340;48.756;9.226;2023-11-19T14:07:56;2.10;;;1.30;;
18425;SDS011;9340;48.756;9.226;2023-11-19T14:10:23;1.33;;;1.10;;
18425;SDS011;9340;48.756;9.226;2023-11-19T14:12:50;1.20;;;1.07;;
18425;SDS011;9340;48.756;9.226;2023-11-19T14:15:18;3.27;;;1.07;;
18425;SDS011;9340;48.756;9.226;2023-11-19T14:17:44;3.33;;;1.10;;
18425;SDS011;9340;48.756;9.226;2023-11-19T14:20:11;2.50;;;1.33;;
18425;SDS011;9340;48.756;9.226;2023-11-19T14:22:38;1.07;;;0.97;;
18425;SDS011;9340;48.756;9.226;2023-11-19T14:25:06;2.08;;;1.10;;
18425;SDS011;9340;48.756;9.226;2023-11-19T14:27:35;3.10;;;1.10;;
18425;SDS011;9340;48.756;9.226;2023-11-19T14:30:03;2.63;;;1.30;;
18425;SDS011;9340;48.756;9.226;2023-11-19T14:32:32;1.50;;;1.10;;
18425;SDS011;9340;48.756;9.226;2023-11-19T14:34:59;1.17;;;1.08;;
18425;SDS011;9340;48.756;9.226;2023-11-19T14:37:25;1.37;;;1.00;;
18425;SDS011;9340;48.756;9.226;2023-11-19T14:39:52;1.77;;;1.10;;
18425;SDS011;9340;48.756;9.226;2023-11-19T14:42:19;1.87;;;1.40;;
18425;SDS011;9340;48.756;9.226;2023-11-19T14:44:45;1.97;;;1.27;;
18425;SDS011;9340;48.756;9.226;2023-11-19T14:47:12;2.47;;;1.17;;
18425;SDS011;9340;48.756;9.226;2023-11-19T14:49:40;1.20;;;1.10;;
18425;SDS011;9340;48.756;9.226;2023-11-19T14:52:06;1.30;;;1.20;;
18425;SDS011;9340;48.756;9.226;2023-11-19T14:54:33;2.20;;;1.03;;
18425;SDS011;9340;48.756;9.226;2023-11-19T14:57:00;3.43;;;1.40;;
18425;SDS011;9340;48.756;9.226;2023-11-19T14:59:28;1.83;;;1.20;;
18425;SDS011;9340;48.756;9.226;2023-11-19T15:01:54;1.30;;;1.03;;
18425;SDS011;9340;48.756;9.226;2023-11-19T15:04:22;1.40;;;1.30;;
18425;SDS011;9340;48.756;9.226;2023-11-19T15:06:50;1.20;;;1.10;;
18425;SDS011;9340;48.756;9.226;2023-11-19T15:09:17;1.30;;;1.10;;